Time;durP1;ratioP1;P1;durP2;ratioP2;P2;SDS_P1;SDS_P2;PMS_P1;PMS_P2;Temp;Humidity;BMP_temperature;BMP_pressure;BME280_temperature;BME280_humidity;BME280_pressure;Samples;Min_cycle;Max_cycle;Signal;HPM_P1;HPM_P2
2022/06/04 00:01:33;;;;;;;;;36.00;34.00;;;;;22.08;45.36;101263.39;110631;1258;20254;-47
2022/06/04 00:04:01;;;;;;;;;32.50;32.00;;;;;22.07;45.21;101257.20;110483;1259;19205;-47
2022/06/04 00:06:28;;;;;;;;;33.50;33.00;;;;;22.08;45.27;101256.33;110451;1259;23173;-47
2022/06/04 00:08:55;;;;;;;;;34.00;32.67;;;;;22.10;45.20;101252.52;110469;1261;21646;-44
2022/06/04 00:17:01;;;;;;;;;31.67;30.00;;;;;22.07;45.31;101238.25;110219;1263;21818;-47
2022/06/04 00:19:28;;;;;;;;;34.67;32.00;;;;;22.10;45.33;101234.30;110286;1264;19291;-48
2022/06/04 00:21:56;;;;;;;;;35.33;33.00;;;;;22.03;45.21;101231.97;110268;1264;24125;-48
2022/06/04 00:24:23;;;;;;;;;36.67;33.00;;;;;21.98;45.29;101222.56;110244;1263;21964;-47
2022/06/04 00:26:50;;;;;;;;;37.67;35.33;;;;;22.00;45.31;101225.42;110262;1264;19339;-45
2022/06/04 00:29:17;;;;;;;;;33.00;32.00;;;;;21.96;45.49;101221.45;110237;1263;19858;-46
2022/06/04 00:31:45;;;;;;;;;34.67;33.33;;;;;21.97;45.49;101216.96;110191;1263;20426;-47
2022/06/04 00:34:12;;;;;;;;;32.33;30.67;;;;;21.99;45.38;101219.30;110180;1263;19362;-47
2022/06/04 00:36:39;;;;;;;;;36.00;32.00;;;;;22.01;45.25;101217.95;110056;1264;22434;-47
2022/06/04 00:39:06;;;;;;;;;35.33;32.33;;;;;22.06;45.09;101216.10;110185;1263;21343;-47
2022/06/04 00:41:34;;;;;;;;;34.00;33.00;;;;;22.10;45.26;101216.23;110243;1264;19251;-46
2022/06/04 00:44:02;;;;;;;;;33.33;31.67;;;;;22.12;45.14;101210.08;110256;1263;20569;-49
2022/06/04 00:46:29;;;;;;;;;31.00;30.00;;;;;22.11;45.17;101210.66;110285;1264;21601;-47
2022/06/04 00:48:56;;;;;;;;;37.33;36.00;;;;;22.07;45.29;101208.97;110256;1263;20368;-48
2022/06/04 00:51:24;;;;;;;;;32.50;31.00;;;;;22.00;45.19;101204.67;110434;1261;19556;-47
2022/06/04 00:53:51;;;;;;;;;35.00;33.50;;;;;21.92;45.51;101208.08;110497;1260;20162;-47
2022/06/04 00:56:18;;;;;;;;;40.00;33.33;;;;;21.93;45.39;101207.48;110453;1260;20773;-47
2022/06/04 00:58:45;;;;;;;;;38.33;33.67;;;;;21.94;45.32;101202.27;110486;1260;19651;-45
2022/06/04 01:01:13;;;;;;;;;29.33;28.67;;;;;21.94;45.30;101206.84;110480;1260;20487;-48
2022/06/04 01:03:40;;;;;;;;;37.67;33.33;;;;;21.91;45.40;101202.54;110488;1260;19305;-47
2022/06/04 01:06:07;;;;;;;;;33.33;31.67;;;;;21.90;45.44;101202.48;110573;1258;19551;-48
2022/06/04 01:08:34;;;;;;;;;31.67;29.33;;;;;21.86;45.30;101197.10;110431;1260;22496;-47
2022/06/04 01:11:02;;;;;;;;;35.00;30.00;;;;;21.84;45.45;101193.48;110589;1258;23612;-48
2022/06/04 01:13:29;;;;;;;;;30.00;29.50;;;;;21.83;45.51;101190.00;110613;1259;19872;-47
2022/06/04 01:15:57;;;;;;;;;28.67;28.33;;;;;21.84;45.39;101187.52;110590;1258;22458;-47
2022/06/04 01:18:24;;;;;;;;;30.00;27.33;;;;;21.81;45.56;101188.95;110480;1260;19170;-47
2022/06/04 01:20:52;;;;;;;;;34.00;31.50;;;;;21.81;45.31;101189.33;110584;1258;23068;-47
2022/06/04 01:23:19;;;;;;;;;30.00;29.33;;;;;21.77;45.38;101186.70;110459;1261;23302;-48
2022/06/04 01:25:46;;;;;;;;;35.00;30.33;;;;;21.81;45.47;101183.39;110590;1258;19406;-48
2022/06/04 01:28:15;;;;;;;;;26.33;25.00;;;;;21.80;45.20;101186.12;110652;1258;22523;-47
2022/06/04 01:30:43;;;;;;;;;31.33;28.33;;;;;21.86;45.28;101185.27;110479;1260;20397;-47
2022/06/04 01:33:11;;;;;;;;;30.00;28.00;;;;;21.89;45.10;101188.30;110587;1258;20192;-47
2022/06/04 01:35:38;;;;;;;;;29.00;29.00;;;;;21.88;45.09;101187.82;110477;1261;21342;-47
2022/06/04 01:38:05;;;;;;;;;29.00;29.00;;;;;21.87;44.96;101181.02;110605;1259;23033;-47
2022/06/04 01:43:17;;;;;;;;;28.67;26.67;;;;;21.89;45.01;101184.23;110541;1258;19883;-48
2022/06/04 01:45:44;;;;;;;;;29.67;28.33;;;;;21.90;45.03;101187.52;110585;1258;21773;-48
2022/06/04 01:48:12;;;;;;;;;28.00;27.00;;;;;21.92;45.12;101182.09;110638;1258;19286;-49
2022/06/04 01:50:39;;;;;;;;;30.00;29.00;;;;;21.98;44.89;101181.45;110438;1260;19717;-51
2022/06/04 01:53:06;;;;;;;;;30.00;28.00;;;;;22.01;45.01;101179.42;110602;1258;22236;-47
2022/06/04 01:55:33;;;;;;;;;33.00;30.00;;;;;22.02;44.93;101180.89;110622;1258;21481;-47
2022/06/04 01:58:01;;;;;;;;;31.00;29.00;;;;;22.04;44.82;101176.73;110474;1260;23187;-47
2022/06/04 02:00:28;;;;;;;;;32.33;29.33;;;;;22.02;45.06;101177.73;110439;1260;20332;-47
2022/06/04 02:02:55;;;;;;;;;30.00;28.00;;;;;21.97;44.92;101175.38;110460;1261;19571;-46
2022/06/04 02:05:22;;;;;;;;;30.67;28.33;;;;;21.92;45.29;101168.98;110473;1259;19571;-48
2022/06/04 02:07:50;;;;;;;;;28.50;26.50;;;;;21.90;45.31;101164.65;110468;1260;20483;-45
2022/06/04 02:10:17;;;;;;;;;32.67;31.33;;;;;21.87;45.44;101159.40;110496;1260;19097;-47
2022/06/04 02:12:44;;;;;;;;;29.00;29.00;;;;;21.85;45.49;101150.30;110455;1260;21428;-47
2022/06/04 02:15:12;;;;;;;;;29.33;28.00;;;;;21.86;45.42;101146.38;110390;1260;20688;-49
2022/06/04 02:17:39;;;;;;;;;33.33;31.33;;;;;21.81;45.24;101137.11;110435;1260;19341;-48
2022/06/04 02:20:07;;;;;;;;;36.00;30.00;;;;;21.79;45.35;101129.71;110392;1260;20969;-48
2022/06/04 02:22:34;;;;;;;;;30.33;28.00;;;;;21.80;45.41;101120.45;110486;1260;20293;-47
2022/06/04 02:25:01;;;;;;;;;32.00;29.67;;;;;21.82;45.34;101118.32;110428;1260;19362;-47
2022/06/04 02:27:29;;;;;;;;;32.50;32.00;;;;;21.79;45.24;101116.48;110486;1260;19549;-48
2022/06/04 02:29:56;;;;;;;;;35.67;33.33;;;;;21.78;45.27;101118.05;110486;1260;22229;-48
2022/06/04 02:32:23;;;;;;;;;30.00;29.50;;;;;21.79;45.41;101119.72;110434;1260;20287;-47
2022/06/04 02:34:50;;;;;;;;;32.00;29.67;;;;;21.79;45.32;101117.13;110442;1261;19828;-47
2022/06/04 02:37:18;;;;;;;;;32.67;30.00;;;;;21.78;45.38;101119.35;110516;1260;22548;-49
2022/06/04 02:39:45;;;;;;;;;34.00;32.67;;;;;21.77;45.36;101118.14;110442;1260;24006;-48
2022/06/04 02:42:12;;;;;;;;;33.00;30.67;;;;;21.79;45.27;101121.56;110465;1260;19734;-47
2022/06/04 02:44:39;;;;;;;;;37.67;36.00;;;;;21.79;45.46;101117.78;110454;1260;23020;-46
2022/06/04 02:47:07;;;;;;;;;32.00;30.00;;;;;21.77;45.36;101114.64;110328;1260;19477;-49
2022/06/04 02:49:36;;;;;;;;;34.33;32.33;;;;;21.78;45.50;101111.98;110496;1261;19576;-47
2022/06/04 02:52:03;;;;;;;;;32.33;32.00;;;;;21.78;45.36;101112.23;110453;1260;20442;-47
2022/06/04 02:54:31;;;;;;;;;34.00;31.00;;;;;21.75;45.63;101110.71;110434;1260;19695;-48
2022/06/04 02:56:58;;;;;;;;;32.00;29.00;;;;;21.77;45.43;101110.35;110441;1260;19606;-47
2022/06/04 02:59:26;;;;;;;;;34.00;30.00;;;;;21.76;45.56;101112.09;110494;1261;20447;-46
2022/06/04 03:01:53;;;;;;;;;36.00;33.50;;;;;21.71;45.63;101111.41;110456;1261;22706;-47
2022/06/04 03:04:20;;;;;;;;;37.00;32.67;;;;;21.72;45.61;101107.95;110479;1260;23315;-47
2022/06/04 03:06:48;;;;;;;;;35.33;32.33;;;;;21.74;45.60;101109.90;110454;1260;20344;-48
2022/06/04 03:09:15;;;;;;;;;42.00;36.00;;;;;21.75;45.82;101107.27;110466;1261;19341;-49
2022/06/04 03:11:43;;;;;;;;;36.00;30.00;;;;;21.74;45.82;101113.42;110448;1261;19708;-49
2022/06/04 03:14:10;;;;;;;;;35.00;30.50;;;;;21.73;46.03;101112.27;110365;1261;20469;-47
2022/06/04 03:16:38;;;;;;;;;35.67;32.67;;;;;21.70;46.25;101109.69;110489;1261;19500;-48
2022/06/04 03:19:07;;;;;;;;;38.33;34.00;;;;;21.63;46.24;101106.45;110459;1261;19645;-49
2022/06/04 03:21:34;;;;;;;;;28.67;28.00;;;;;21.64;46.11;101109.80;110408;1261;20240;-46
2022/06/04 03:24:01;;;;;;;;;35.00;33.67;;;;;21.68;46.24;101111.21;110472;1260;19231;-47
2022/06/04 03:26:29;;;;;;;;;36.00;32.00;;;;;21.63;46.42;101110.44;110453;1260;19587;-47
2022/06/04 03:28:56;;;;;;;;;31.33;29.00;;;;;21.57;46.69;101105.10;110453;1260;22197;-48
2022/06/04 03:31:23;;;;;;;;;27.67;27.00;;;;;21.58;46.54;101102.76;110498;1261;20410;-48
2022/06/04 03:33:51;;;;;;;;;35.00;32.00;;;;;21.64;46.59;101102.16;110465;1260;19537;-47
2022/06/04 03:36:18;;;;;;;;;32.50;31.50;;;;;21.61;46.51;101100.66;110422;1261;20335;-46
2022/06/04 03:38:45;;;;;;;;;33.00;32.00;;;;;21.56;46.89;101101.96;110342;1260;19331;-47
2022/06/04 03:41:13;;;;;;;;;32.33;31.33;;;;;21.57;46.78;101101.08;110260;1261;22007;-47
2022/06/04 03:43:41;;;;;;;;;31.67;29.67;;;;;21.60;46.70;101100.77;110444;1260;20367;-47
2022/06/04 03:46:08;;;;;;;;;31.00;29.00;;;;;21.56;46.55;101105.82;110344;1262;19263;-46
2022/06/04 03:48:36;;;;;;;;;32.50;29.00;;;;;21.60;46.65;101105.71;110322;1261;19440;-46
2022/06/04 03:51:03;;;;;;;;;31.33;30.67;;;;;21.61;46.64;101107.35;110398;1260;20333;-45
2022/06/04 03:53:30;;;;;;;;;33.67;29.67;;;;;21.66;46.49;101109.77;110359;1260;19507;-45
2022/06/04 03:55:57;;;;;;;;;35.50;32.50;;;;;21.70;46.38;101114.63;110449;1260;23537;-46
2022/06/04 03:58:30;;;;;;;;;33.00;29.33;;;;;21.69;46.46;101116.84;110427;1260;21835;-47
2022/06/04 04:00:57;;;;;;;;;33.67;31.00;;;;;21.65;46.40;101108.20;110403;1260;23051;-45
2022/06/04 04:03:24;;;;;;;;;33.00;32.00;;;;;21.68;46.38;101114.55;110446;1260;19542;-46
2022/06/04 04:05:52;;;;;;;;;34.33;31.33;;;;;21.72;46.31;101116.13;110428;1259;20601;-45
2022/06/04 04:08:19;;;;;;;;;32.67;31.67;;;;;21.75;46.55;101118.05;110404;1260;23789;-45
2022/06/04 04:10:46;;;;;;;;;31.00;29.00;;;;;21.73;46.62;101120.75;110441;1260;19881;-47
2022/06/04 04:13:13;;;;;;;;;32.00;30.00;;;;;21.72;46.82;101117.48;110417;1260;21589;-52
2022/06/04 04:15:41;;;;;;;;;38.67;30.67;;;;;21.67;47.06;101111.05;110436;1261;23953;-50
2022/06/04 04:18:08;;;;;;;;;29.67;28.67;;;;;21.70;46.90;101114.20;110434;1261;20423;-48
2022/06/04 04:20:36;;;;;;;;;32.00;28.67;;;;;21.70;47.03;101109.51;110375;1260;21229;-44
2022/06/04 04:23:04;;;;;;;;;28.67;28.00;;;;;21.71;46.97;101112.48;110421;1260;22584;-46
2022/06/04 04:25:31;;;;;;;;;28.67;28.00;;;;;21.75;46.86;101116.73;110485;1260;19838;-48
2022/06/04 04:27:58;;;;;;;;;28.00;28.00;;;;;21.80;46.67;101113.91;110464;1261;20313;-47
2022/06/04 04:30:26;;;;;;;;;32.00;30.33;;;;;21.74;47.01;101109.60;110437;1258;19474;-47
2022/06/04 04:32:53;;;;;;;;;33.33;32.00;;;;;21.66;47.12;101110.09;110430;1259;22223;-48
2022/06/04 04:35:20;;;;;;;;;29.33;28.00;;;;;21.60;47.27;101110.95;110465;1261;20150;-47
2022/06/04 04:37:47;;;;;;;;;31.33;29.67;;;;;21.50;47.13;101114.42;110472;1261;19158;-47
2022/06/04 04:40:15;;;;;;;;;38.00;32.00;;;;;21.52;47.33;101119.27;110466;1259;22746;-47
2022/06/04 04:42:42;;;;;;;;;30.67;29.00;;;;;21.49;47.14;101118.21;110472;1258;21052;-47
2022/06/04 04:45:09;;;;;;;;;30.33;29.00;;;;;21.44;47.30;101119.91;110448;1260;19292;-48
2022/06/04 04:47:37;;;;;;;;;29.33;28.00;;;;;21.40;47.33;101125.64;110462;1260;20825;-47
2022/06/04 04:50:04;;;;;;;;;32.33;29.00;;;;;21.38;47.30;101120.36;110462;1261;20348;-47
2022/06/04 04:52:31;;;;;;;;;27.67;26.67;;;;;21.39;47.08;101114.55;110584;1259;19226;-48
2022/06/04 04:54:58;;;;;;;;;28.67;27.67;;;;;21.42;47.25;101114.98;110465;1259;19531;-47
2022/06/04 04:57:26;;;;;;;;;35.00;29.33;;;;;21.52;47.30;101111.89;110421;1260;23703;-47
2022/06/04 04:59:53;;;;;;;;;29.67;28.33;;;;;21.57;48.01;101116.23;110495;1259;19146;-48
2022/06/04 05:02:21;;;;;;;;;29.00;28.00;;;;;21.60;48.46;101114.83;110457;1261;19449;-47
2022/06/04 05:04:48;;;;;;;;;28.67;27.33;;;;;21.57;48.36;101118.71;110520;1258;20488;-49
2022/06/04 05:07:15;;;;;;;;;28.33;27.33;;;;;21.64;48.31;101123.46;110576;1259;19467;-50
2022/06/04 05:09:42;;;;;;;;;29.67;28.00;;;;;21.69;48.13;101126.70;110587;1258;22263;-50
2022/06/04 05:12:10;;;;;;;;;28.00;27.00;;;;;21.71;47.88;101125.78;110453;1259;20414;-50
2022/06/04 05:14:37;;;;;;;;;28.50;27.50;;;;;21.68;47.78;101128.27;110478;1260;19131;-49
2022/06/04 05:17:04;;;;;;;;;27.00;27.00;;;;;21.73;47.86;101129.18;110593;1258;19542;-49
2022/06/04 05:19:31;;;;;;;;;28.50;27.50;;;;;21.71;47.86;101132.12;110672;1259;21955;-49
2022/06/04 05:21:59;;;;;;;;;30.50;28.00;;;;;21.64;47.80;101135.05;110391;1260;23056;-49
2022/06/04 05:24:26;;;;;;;;;30.50;29.00;;;;;21.71;47.82;101132.66;110618;1258;19545;-50
2022/06/04 05:26:54;;;;;;;;;28.00;27.67;;;;;21.76;47.74;101134.05;110417;1259;22805;-51
2022/06/04 05:29:21;;;;;;;;;30.50;27.50;;;;;21.79;47.50;101133.53;110475;1260;19339;-48
2022/06/04 05:31:48;;;;;;;;;26.00;25.33;;;;;21.79;47.57;101131.93;110614;1259;19713;-50
2022/06/04 05:34:15;;;;;;;;;27.33;27.33;;;;;21.95;47.39;101131.92;110526;1259;21686;-50
2022/06/04 05:36:43;;;;;;;;;26.67;25.00;;;;;22.18;47.16;101138.77;110612;1259;19256;-49
2022/06/04 05:39:10;;;;;;;;;27.50;25.50;;;;;22.31;47.24;101145.61;110597;1258;19649;-50
2022/06/04 05:41:38;;;;;;;;;26.00;25.00;;;;;22.42;46.90;101146.58;110368;1258;303752;-50
2022/06/04 05:44:05;;;;;;;;;30.33;27.00;;;;;22.46;47.19;101148.40;110621;1259;23004;-49
2022/06/04 05:46:32;;;;;;;;;24.00;23.00;;;;;22.52;46.97;101146.83;110648;1258;19548;-50
2022/06/04 05:49:00;;;;;;;;;25.00;24.00;;;;;22.54;46.88;101146.19;110427;1260;23061;-50
2022/06/04 05:51:27;;;;;;;;;26.00;25.67;;;;;22.55;47.66;101150.82;110609;1258;19282;-49
2022/06/04 05:53:55;;;;;;;;;21.50;21.00;;;;;22.56;47.76;101155.46;110646;1258;20652;-49
2022/06/04 05:56:22;;;;;;;;;25.00;24.00;;;;;22.54;47.63;101162.29;110449;1260;20485;-51
2022/06/04 05:58:50;;;;;;;;;27.67;26.00;;;;;22.47;47.31;101166.87;110612;1258;19290;-44
2022/06/04 06:01:18;;;;;;;;;25.33;25.00;;;;;22.46;47.03;101166.28;110621;1259;19688;-48
2022/06/04 06:03:45;;;;;;;;;23.67;23.67;;;;;22.35;47.32;101166.09;110489;1261;21242;-48
2022/06/04 06:06:13;;;;;;;;;30.00;28.67;;;;;22.23;47.46;101165.67;110398;1259;20231;-49
2022/06/04 06:08:40;;;;;;;;;28.33;25.67;;;;;22.27;47.28;101162.65;110443;1260;19862;-49
2022/06/04 06:11:07;;;;;;;;;29.00;27.67;;;;;22.29;47.17;101160.98;110444;1260;23221;-47
2022/06/04 06:13:34;;;;;;;;;32.00;29.00;;;;;22.32;47.25;101155.70;110480;1261;23931;-47
2022/06/04 06:16:01;;;;;;;;;30.50;28.50;;;;;22.30;47.25;101155.17;110440;1261;19477;-49
2022/06/04 06:18:29;;;;;;;;;26.00;25.00;;;;;22.27;47.13;101152.24;110453;1259;20861;-49
2022/06/04 06:20:56;;;;;;;;;30.67;29.00;;;;;22.24;47.27;101153.77;110477;1260;19464;-49
2022/06/04 06:23:23;;;;;;;;;29.00;27.00;;;;;22.25;47.29;101161.94;110469;1260;20299;-48
2022/06/04 06:25:51;;;;;;;;;33.33;30.00;;;;;22.34;47.33;101163.69;110340;1259;20406;-50
2022/06/04 06:28:18;;;;;;;;;97.00;72.00;;;;;22.41;47.63;101163.72;110370;1259;19197;-48
2022/06/04 06:30:45;;;;;;;;;141.33;107.33;;;;;22.56;47.61;101159.32;110374;1259;22763;-50
2022/06/04 06:33:15;;;;;;;;;217.25;160.00;;;;;22.67;47.75;101155.80;110375;1259;23040;-49
2022/06/04 06:35:42;;;;;;;;;245.25;188.75;;;;;22.77;47.65;101156.11;110378;1259;19499;-50
2022/06/04 06:38:09;;;;;;;;;204.75;154.00;;;;;22.85;47.42;101155.73;110256;1261;19980;-51
2022/06/04 06:40:37;;;;;;;;;212.00;160.75;;;;;22.93;47.31;101157.31;110417;1259;23266;-49
2022/06/04 06:43:04;;;;;;;;;127.25;105.00;;;;;22.94;47.28;101157.79;110394;1259;23575;-47
2022/06/04 06:45:32;;;;;;;;;120.00;92.67;;;;;22.89;47.21;101162.36;110408;1259;19836;-48
2022/06/04 06:47:59;;;;;;;;;102.67;75.00;;;;;22.88;47.26;101159.77;110434;1259;23766;-51
2022/06/04 06:50:26;;;;;;;;;96.00;72.67;;;;;22.94;47.41;101158.46;110385;1259;24080;-48
2022/06/04 06:52:53;;;;;;;;;89.00;65.50;;;;;22.98;47.36;101159.88;110395;1259;23463;-51
2022/06/04 06:55:21;;;;;;;;;86.50;63.00;;;;;23.03;47.56;101158.89;110429;1259;20533;-49
2022/06/04 06:57:48;;;;;;;;;73.00;56.33;;;;;23.03;47.82;101156.19;110413;1259;19356;-49
2022/06/04 07:00:15;;;;;;;;;71.00;54.00;;;;;22.95;47.92;101154.14;110426;1259;19693;-49
2022/06/04 07:02:43;;;;;;;;;68.00;54.00;;;;;23.08;48.89;101152.94;110494;1259;22849;-48
2022/06/04 07:05:10;;;;;;;;;57.33;47.67;;;;;23.16;48.97;101149.29;110429;1259;19238;-49
2022/06/04 07:07:37;;;;;;;;;62.50;46.00;;;;;23.07;49.27;101145.92;110528;1260;19678;-50
2022/06/04 07:10:04;;;;;;;;;61.00;46.33;;;;;23.11;49.43;101146.55;110438;1259;20638;-48
2022/06/04 07:12:32;;;;;;;;;53.50;42.00;;;;;23.18;49.20;101142.51;110497;1258;21900;-48
2022/06/04 07:14:59;;;;;;;;;54.33;43.00;;;;;23.26;49.55;101138.44;110477;1260;22038;-49
2022/06/04 07:17:27;;;;;;;;;54.33;43.67;;;;;23.34;49.41;101141.13;110447;1260;20565;-49
2022/06/04 07:19:54;;;;;;;;;48.33;41.33;;;;;23.39;49.02;101148.34;110252;1260;19329;-48
2022/06/04 07:22:21;;;;;;;;;51.00;42.00;;;;;23.37;48.44;101149.31;110472;1261;24275;-49
2022/06/04 07:24:48;;;;;;;;;47.00;40.00;;;;;23.37;48.76;101150.92;110439;1260;21603;-47
2022/06/04 07:27:16;;;;;;;;;52.33;40.00;;;;;23.41;48.71;101156.66;110397;1260;19293;-47
2022/06/04 07:29:43;;;;;;;;;40.00;39.00;;;;;23.47;48.47;101160.38;110370;1261;19627;-47
2022/06/04 07:32:11;;;;;;;;;41.00;38.50;;;;;23.51;47.94;101158.05;110399;1260;21947;-49
2022/06/04 07:34:38;;;;;;;;;41.00;35.00;;;;;23.53;48.15;101154.91;110473;1261;19421;-49
2022/06/04 07:37:07;;;;;;;;;36.33;32.00;;;;;23.52;47.97;101155.17;110440;1261;21080;-48
2022/06/04 07:39:34;;;;;;;;;38.00;35.33;;;;;23.51;47.90;101160.04;110396;1259;20756;-49
2022/06/04 07:42:01;;;;;;;;;35.33;32.33;;;;;23.41;47.73;101166.17;110332;1260;22418;-49
2022/06/04 07:44:28;;;;;;;;;35.33;32.33;;;;;23.27;47.73;101162.77;110451;1261;23751;-47
2022/06/04 07:46:58;;;;;;;;;35.33;34.00;;;;;23.29;47.86;101162.17;110466;1259;20966;-48
2022/06/04 07:49:26;;;;;;;;;34.00;31.00;;;;;23.33;47.79;101164.27;110508;1261;19494;-49
2022/06/04 07:51:54;;;;;;;;;34.00;31.33;;;;;23.37;47.77;101164.46;110463;1260;19685;-49
2022/06/04 07:54:22;;;;;;;;;31.67;29.67;;;;;23.40;48.06;101160.85;110479;1261;20479;-48
2022/06/04 07:56:50;;;;;;;;;34.00;27.50;;;;;23.47;47.97;101159.79;110445;1260;19360;-46
2022/06/04 07:59:18;;;;;;;;;31.00;28.00;;;;;23.55;48.32;101152.43;110471;1260;19566;-48
2022/06/04 08:01:45;;;;;;;;;32.00;28.00;;;;;23.62;48.47;101157.95;110469;1260;21198;-45
2022/06/04 08:04:12;;;;;;;;;28.33;27.67;;;;;23.57;48.17;101160.77;110336;1260;20145;-50
2022/06/04 08:06:39;;;;;;;;;33.00;31.67;;;;;23.55;48.21;101163.24;110557;1258;19595;-49
2022/06/04 08:09:07;;;;;;;;;36.00;34.00;;;;;23.60;48.36;101160.36;110504;1258;20388;-49
2022/06/04 08:11:35;;;;;;;;;34.67;32.33;;;;;23.60;48.24;101160.47;110603;1259;19300;-49
2022/06/04 08:14:02;;;;;;;;;34.33;33.67;;;;;23.52;48.41;101156.98;110530;1258;19652;-48
2022/06/04 08:16:29;;;;;;;;;39.00;35.00;;;;;23.54;48.41;101156.08;110617;1258;20321;-48
2022/06/04 08:18:57;;;;;;;;;39.67;36.00;;;;;23.56;48.63;101152.54;110601;1259;22974;-47
2022/06/04 08:21:24;;;;;;;;;37.33;35.67;;;;;23.54;48.59;101154.91;110591;1259;19704;-49
2022/06/04 08:23:51;;;;;;;;;39.00;35.00;;;;;23.51;49.06;101156.24;110554;1258;20614;-46
2022/06/04 08:26:18;;;;;;;;;39.33;36.00;;;;;23.55;48.90;101154.59;110592;1258;19266;-48
2022/06/04 08:28:46;;;;;;;;;35.67;33.00;;;;;23.57;49.05;101158.65;110677;1258;23325;-49
2022/06/04 08:31:13;;;;;;;;;38.50;37.00;;;;;23.56;49.09;101158.92;110464;1259;23034;-49
2022/06/04 08:33:40;;;;;;;;;36.50;35.50;;;;;23.61;48.71;101165.27;110458;1261;19354;-48
2022/06/04 08:36:08;;;;;;;;;42.00;37.00;;;;;23.56;48.55;101165.70;110464;1260;23085;-49
2022/06/04 08:38:35;;;;;;;;;38.00;36.00;;;;;23.57;48.38;101168.66;110582;1258;20321;-49
2022/06/04 08:41:02;;;;;;;;;40.33;37.00;;;;;23.51;48.47;101165.16;110543;1258;19225;-49
2022/06/04 08:43:30;;;;;;;;;38.00;36.00;;;;;23.56;48.75;101157.94;110496;1258;19465;-48
2022/06/04 08:45:57;;;;;;;;;39.50;33.00;;;;;23.61;48.90;101159.70;110603;1258;20776;-48
2022/06/04 08:48:24;;;;;;;;;37.00;35.50;;;;;23.62;48.75;101149.83;110585;1258;19411;-49
2022/06/04 08:50:54;;;;;;;;;35.67;33.67;;;;;23.57;48.61;101143.97;110600;1258;19742;-49
2022/06/04 08:53:22;;;;;;;;;40.00;37.00;;;;;23.61;48.38;101146.85;110514;1259;23216;-51
2022/06/04 08:58:36;;;;;;;;;29.67;27.00;;;;;23.56;48.02;101147.44;110610;1258;23618;-48
2022/06/04 09:01:03;;;;;;;;;29.67;29.67;;;;;23.52;47.29;101145.69;110541;1259;21918;-50
2022/06/04 09:03:30;;;;;;;;;31.00;28.00;;;;;23.53;46.90;101141.16;110512;1258;23038;-47
2022/06/04 09:05:58;;;;;;;;;27.67;27.00;;;;;23.57;46.34;101145.86;110458;1258;19653;-49
2022/06/04 09:08:25;;;;;;;;;23.67;23.00;;;;;23.54;44.93;101140.72;110534;1258;24255;-50
2022/06/04 09:10:52;;;;;;;;;27.33;26.33;;;;;23.57;44.71;101150.98;110468;1258;22999;-50
2022/06/04 09:13:19;;;;;;;;;31.00;30.00;;;;;23.55;44.96;101150.32;110537;1258;22880;-49
2022/06/04 09:15:47;;;;;;;;;28.50;28.00;;;;;23.54;45.25;101156.20;110501;1258;21172;-48
2022/06/04 09:18:14;;;;;;;;;24.50;24.00;;;;;23.52;45.01;101155.33;110533;1258;19548;-48
2022/06/04 09:20:42;;;;;;;;;25.67;23.67;;;;;23.53;44.76;101153.92;110600;1258;19702;-50
2022/06/04 09:23:09;;;;;;;;;25.00;23.67;;;;;23.57;44.56;101153.79;110478;1259;20504;-46
2022/06/04 09:25:37;;;;;;;;;26.00;24.00;;;;;23.65;44.48;101155.83;110532;1258;19248;-48
2022/06/04 09:28:04;;;;;;;;;25.00;23.33;;;;;23.65;44.34;101155.66;110502;1258;19683;-49
2022/06/04 09:30:31;;;;;;;;;27.00;25.00;;;;;23.63;44.09;101149.81;110471;1258;20384;-49
2022/06/04 09:32:59;;;;;;;;;27.00;24.00;;;;;23.62;43.96;101154.89;110539;1258;19310;-49
2022/06/04 09:35:26;;;;;;;;;27.00;22.50;;;;;23.61;43.58;101152.41;110320;1259;19714;-49
2022/06/04 09:37:53;;;;;;;;;27.33;25.67;;;;;23.65;43.53;101153.46;110579;1258;21987;-50
2022/06/04 09:40:21;;;;;;;;;23.50;23.00;;;;;23.65;42.96;101154.55;110641;1258;19656;-50
2022/06/04 09:42:48;;;;;;;;;25.00;23.00;;;;;23.59;42.62;101152.33;110466;1260;19848;-48
2022/06/04 09:45:15;;;;;;;;;23.00;22.00;;;;;23.57;42.14;101150.06;110460;1260;20318;-48
2022/06/04 09:47:43;;;;;;;;;27.00;26.00;;;;;23.57;42.43;101143.80;110473;1260;19414;-49
2022/06/04 09:50:10;;;;;;;;;24.67;24.67;;;;;23.51;42.75;101141.05;110615;1258;19803;-50
2022/06/04 09:52:37;;;;;;;;;22.67;22.33;;;;;23.46;43.14;101141.52;110640;1258;20237;-49
2022/06/04 09:55:04;;;;;;;;;23.00;22.67;;;;;23.42;43.26;101139.41;110485;1259;20179;-48
2022/06/04 09:57:32;;;;;;;;;26.00;23.50;;;;;23.43;43.92;101142.05;110411;1260;20188;-48
2022/06/04 09:59:59;;;;;;;;;26.67;24.00;;;;;23.43;44.15;101140.71;110616;1258;22779;-49
2022/06/04 10:02:27;;;;;;;;;27.00;26.33;;;;;23.41;44.51;101138.95;110614;1258;23156;-50
2022/06/04 10:04:54;;;;;;;;;25.67;24.33;;;;;23.47;44.97;101136.79;110615;1258;20296;-50
2022/06/04 10:07:22;;;;;;;;;27.00;25.00;;;;;23.51;45.03;101141.97;110642;1258;20388;-49
2022/06/04 10:09:56;;;;;;;;;28.33;27.00;;;;;23.53;45.87;101144.36;110470;1261;19236;-48
2022/06/04 10:13:42;;;;;;;;;27.33;26.67;;;;;23.59;46.45;101143.23;110470;1259;24383;-48
2022/06/04 10:15:10;;;;;;;;;25.67;24.00;;;;;23.64;46.65;101142.75;110556;1258;23527;-50
2022/06/04 10:17:38;;;;;;;;;26.33;26.00;;;;;23.61;46.59;101144.01;110431;1260;19366;-49
2022/06/04 10:20:05;;;;;;;;;27.50;27.50;;;;;23.55;46.45;101138.27;110542;1258;20494;-48
2022/06/04 10:22:32;;;;;;;;;24.33;24.33;;;;;23.61;46.23;101140.98;110583;1258;20336;-49
2022/06/04 10:25:00;;;;;;;;;26.00;24.33;;;;;23.60;46.18;101143.42;110565;1259;19319;-48
2022/06/04 10:27:27;;;;;;;;;25.00;23.50;;;;;23.59;46.27;101141.73;110571;1259;22601;-50
2022/06/04 10:29:54;;;;;;;;;24.67;24.00;;;;;23.57;46.40;101139.45;110592;1258;20416;-49
2022/06/04 10:32:21;;;;;;;;;27.00;25.00;;;;;23.55;46.22;101138.26;110533;1258;21264;-50
2022/06/04 10:34:49;;;;;;;;;29.00;27.00;;;;;23.60;46.26;101140.36;110562;1258;23450;-49
2022/06/04 10:37:16;;;;;;;;;24.00;24.00;;;;;23.72;45.31;101143.27;110429;1258;20328;-50
2022/06/04 10:39:43;;;;;;;;;23.33;23.00;;;;;23.68;45.16;101135.92;110347;1260;19512;-49
2022/06/04 10:42:11;;;;;;;;;25.00;24.00;;;;;23.65;45.23;101137.38;110440;1258;19938;-48
2022/06/04 10:44:38;;;;;;;;;33.00;31.00;;;;;23.72;45.13;101136.35;110590;1258;20279;-48
2022/06/04 10:47:06;;;;;;;;;28.33;25.00;;;;;23.75;44.67;101131.64;110598;1258;19419;-49
2022/06/04 10:49:33;;;;;;;;;29.33;26.67;;;;;23.75;43.95;101128.36;110622;1259;21343;-50
2022/06/04 10:52:00;;;;;;;;;24.33;24.33;;;;;23.72;43.90;101135.95;110580;1258;20578;-47
2022/06/04 10:54:28;;;;;;;;;26.00;24.00;;;;;23.71;43.71;101139.92;110534;1259;20930;-50
2022/06/04 10:56:55;;;;;;;;;23.00;22.00;;;;;23.79;43.39;101145.55;110443;1260;23012;-48
2022/06/04 10:59:22;;;;;;;;;20.00;20.00;;;;;24.06;40.32;101147.18;110617;1258;20332;-49
2022/06/04 11:01:49;;;;;;;;;22.00;20.00;;;;;24.04;39.26;101144.66;110588;1258;19276;-49
2022/06/04 11:04:17;;;;;;;;;22.00;20.33;;;;;23.97;39.36;101147.77;110452;1257;19848;-49
2022/06/04 11:06:45;;;;;;;;;24.00;24.00;;;;;23.92;39.72;101144.83;110367;1259;24251;-47
2022/06/04 11:09:12;;;;;;;;;23.67;22.00;;;;;23.94;40.45;101142.79;110461;1260;19549;-49
2022/06/04 11:11:39;;;;;;;;;26.00;23.33;;;;;24.26;40.20;101143.08;110459;1260;19432;-49
2022/06/04 11:14:06;;;;;;;;;24.00;23.00;;;;;24.19;40.11;101146.31;110475;1260;20384;-49